Atlantic Eagle — SZRU — position and weather

sailwx.info

Track history (hours):
 
Tides and Currents Weather Stations Pressure Air Temp Water Temp Dewpoint Dewpoint Depression Visibility Wind Speed Wind Dir Waves Ship Positions

Atlantic Eagle

Last reported at 2018-Jun-19 01:17 UTC. Time now 2018-Jun-19 06:39 UTC.
Position N 36°30' W 001°05'.

Length 225 m; draft 13.7 m.

Type: Cargo ship. MMSI: 239757000.

Date/timePositionNaut miles runAvg speedWind from/ knotsBaromVisibWave heightAir tempDewpointWater temp
2018-Jun-19 01:17N 36°30' W 001°05'513.0
2018-Jun-19 00:52N 36°29' W 001°12'613.1
2018-Jun-19 00:22N 36°28' W 001°20'18913.6
2018-Jun-18 10:30N 35°60' W 005°11'714.4
2018-Jun-18 10:01N 35°59' W 005°20'713.7
2018-Jun-18 09:30N 35°57' W 005°28'18112.3
2018-Jun-17 18:48N 35°54' W 009°12'412.4
2018-Jun-17 18:30N 35°54' W 009°16'712.1
2018-Jun-17 17:58N 35°54' W 009°24'612.2
2018-Jun-17 17:29N 35°54' W 009°32'1111.9
2018-Jun-17 16:33N 35°54' W 009°45'112.0
2018-Jun-17 16:30N 35°54' W 009°46'612.3
2018-Jun-17 15:58N 35°54' W 009°54'612.0
2018-Jun-17 15:28N 35°54' W 010°02'912.2
2018-Jun-17 14:45N 35°54' W 010°12'612.3
2018-Jun-17 14:17N 35°54' W 010°19'49811.9
2018-Jun-15 20:30N 35°54' W 020°34'18712.5
2018-Jun-15 05:32N 35°54' W 024°25'012.0
2018-Jun-15 05:30N 35°54' W 024°25'612.3
2018-Jun-15 05:00N 35°54' W 024°33'612.6
2018-Jun-15 04:30N 35°54' W 024°40'612.4
2018-Jun-15 04:00N 35°54' W 024°48'612.6
2018-Jun-15 03:30N 35°54' W 024°56'612.7
2018-Jun-15 03:00N 35°54' W 025°04'612.9
2018-Jun-15 02:30N 35°54' W 025°12'613.0
2018-Jun-15 02:00N 35°54' W 025°20'612.7
2018-Jun-15 01:30N 35°54' W 025°27'612.8
2018-Jun-15 01:00N 35°54' W 025°35'713.0
2018-Jun-15 00:30N 35°55' W 025°43'713.1
2018-Jun-15 00:00N 35°55' W 025°51'713.1
2018-Jun-14 23:30N 35°55' W 025°60'713.4
2018-Jun-14 23:00N 35°55' W 026°08'713.3
2018-Jun-14 22:30N 35°55' W 026°16'1013.2
2018-Jun-14 21:44N 35°55' W 026°29'1113.2
2018-Jun-14 20:52N 35°55' W 026°43'513.2
2018-Jun-14 20:28N 35°55' W 026°49'713.2
2018-Jun-14 19:56N 35°55' W 026°58'613.4
2018-Jun-14 19:30N 35°55' W 027°05'613.1
2018-Jun-14 19:00N 35°55' W 027°13'713.3
2018-Jun-14 18:30N 35°56' W 027°21'1113.0
2018-Jun-14 17:37N 35°56' W 027°35'  
Track history (hours):
 
Tides and Currents Weather Stations Pressure Air Temp Water Temp Dewpoint Dewpoint Depression Visibility Wind Speed Wind Dir Waves Ship Positions

Atlantic Eagle

Last reported at 2018-Jun-19 01:17 UTC. Time now 2018-Jun-19 06:39 UTC.
Position N 36°30' W 001°05'.

Length 225 m; draft 13.7 m.

Type: Cargo ship. MMSI: 239757000.

Date/timePositionNaut miles runAvg speedWind from/ knotsBaromVisibWave heightAir tempDewpointWater temp
2018-Jun-19 01:17N 36°30' W 001°05'513.0
2018-Jun-19 00:52N 36°29' W 001°12'613.1
2018-Jun-19 00:22N 36°28' W 001°20'18913.6
2018-Jun-18 10:30N 35°60' W 005°11'714.4
2018-Jun-18 10:01N 35°59' W 005°20'713.7
2018-Jun-18 09:30N 35°57' W 005°28'18112.3
2018-Jun-17 18:48N 35°54' W 009°12'412.4
2018-Jun-17 18:30N 35°54' W 009°16'712.1
2018-Jun-17 17:58N 35°54' W 009°24'612.2
2018-Jun-17 17:29N 35°54' W 009°32'1111.9
2018-Jun-17 16:33N 35°54' W 009°45'112.0
2018-Jun-17 16:30N 35°54' W 009°46'612.3
2018-Jun-17 15:58N 35°54' W 009°54'612.0
2018-Jun-17 15:28N 35°54' W 010°02'912.2
2018-Jun-17 14:45N 35°54' W 010°12'612.3
2018-Jun-17 14:17N 35°54' W 010°19'49811.9
2018-Jun-15 20:30N 35°54' W 020°34'18712.5
2018-Jun-15 05:32N 35°54' W 024°25'012.0
2018-Jun-15 05:30N 35°54' W 024°25'612.3
2018-Jun-15 05:00N 35°54' W 024°33'612.6
2018-Jun-15 04:30N 35°54' W 024°40'612.4
2018-Jun-15 04:00N 35°54' W 024°48'612.6
2018-Jun-15 03:30N 35°54' W 024°56'612.7
2018-Jun-15 03:00N 35°54' W 025°04'612.9
2018-Jun-15 02:30N 35°54' W 025°12'613.0
2018-Jun-15 02:00N 35°54' W 025°20'612.7
2018-Jun-15 01:30N 35°54' W 025°27'612.8
2018-Jun-15 01:00N 35°54' W 025°35'713.0
2018-Jun-15 00:30N 35°55' W 025°43'713.1
2018-Jun-15 00:00N 35°55' W 025°51'713.1
2018-Jun-14 23:30N 35°55' W 025°60'713.4
2018-Jun-14 23:00N 35°55' W 026°08'713.3
2018-Jun-14 22:30N 35°55' W 026°16'1013.2
2018-Jun-14 21:44N 35°55' W 026°29'1113.2
2018-Jun-14 20:52N 35°55' W 026°43'513.2
2018-Jun-14 20:28N 35°55' W 026°49'713.2
2018-Jun-14 19:56N 35°55' W 026°58'613.4
2018-Jun-14 19:30N 35°55' W 027°05'613.1
2018-Jun-14 19:00N 35°55' W 027°13'713.3
2018-Jun-14 18:30N 35°56' W 027°21'1113.0
2018-Jun-14 17:37N 35°56' W 027°35'  

Dump ship's entire track history